Maersk Damietta — A8OU4 — position and weather

sailwx.info

Track history (hours):
 
Tides and Currents Weather Stations Pressure Air Temp Water Temp Dewpoint Dewpoint Depression Visibility Wind Speed Wind Dir Waves Ship Positions

Maersk Damietta

Last reported at 2015-Jul-21 07:31 UTC. Time now 2015-Jul-30 18:05 UTC.
Position N 03°13' E 100°35'.
Warning: this ship's position is 9 days out of date.

Length 295 m; draft 12 m.

Type: Ship. MMSI: 636091506.

Date/timePositionNaut miles runAvg speedWind from/ knotsBaromVisibWave heightAir tempDewpointWater temp
2015-Jul-21 07:31N 03°13' E 100°35'4120.9
2015-Jul-21 05:34N 02°47' E 101°06'4020.2
2015-Jul-21 03:33N 02°26' E 101°41'14317.9
2015-Jul-20 19:33N 01°16' E 103°46'0 0.1
2015-Jul-20 18:28N 01°16' E 103°46'0 0.0
2015-Jul-20 17:33N 01°16' E 103°46'0 0.0
2015-Jul-20 16:28N 01°16' E 103°46'0 0.0
2015-Jul-20 15:28N 01°16' E 103°46'0 0.0
2015-Jul-20 14:25N 01°16' E 103°46'0 0.0
2015-Jul-20 13:28N 01°16' E 103°46'0 0.0
2015-Jul-20 12:24N 01°16' E 103°46'0 0.0
2015-Jul-20 11:24N 01°16' E 103°46'0 0.0
2015-Jul-20 10:33N 01°16' E 103°46'0 0.0
2015-Jul-20 09:30N 01°16' E 103°46'0 0.0
2015-Jul-20 08:33N 01°16' E 103°46'0 0.0
2015-Jul-20 07:29N 01°16' E 103°46'0 0.0
2015-Jul-20 06:29N 01°16' E 103°46'0 0.0
2015-Jul-20 05:32N 01°16' E 103°46'0 0.0
2015-Jul-20 04:27N 01°16' E 103°46'0 0.0
2015-Jul-20 03:03N 01°16' E 103°46'0 0.0
2015-Jul-20 02:33N 01°16' E 103°46'0 0.0
2015-Jul-20 01:33N 01°16' E 103°46'0 0.1
2015-Jul-20 00:33N 01°16' E 103°46'6 5.6
2015-Jul-19 23:33N 01°12' E 103°50'1110.6
2015-Jul-19 22:33N 01°16' E 104°00'  
2015-Jul-16 14:32N 23°42' E 118°26'5719.1
2015-Jul-16 11:31N 24°21' E 119°13'2318.5
2015-Jul-16 10:16N 24°36' E 119°32'1318.4
2015-Jul-16 09:33N 24°45' E 119°43'1918.9
2015-Jul-16 08:33N 24°58' E 119°58'1918.8
2015-Jul-16 07:33N 25°10' E 120°13'2818.7
2015-Jul-16 06:04N 25°30' E 120°35'24419.5
2015-Jul-15 17:32N 29°11' E 122°31'2020.5
2015-Jul-15 16:33N 29°31' E 122°28'1717.2
2015-Jul-15 15:33N 29°45' E 122°18'9 9.3
2015-Jul-15 14:33N 29°52' E 122°11'8 3.5
2015-Jul-15 12:19N 29°54' E 122°02'0 0.0
2015-Jul-15 11:13N 29°54' E 122°02'0 0.0
2015-Jul-15 10:28N 29°54' E 122°02'0 0.0
2015-Jul-15 08:29N 29°54' E 122°02'0 0.0
2015-Jul-15 06:28N 29°54' E 122°02'0 0.0
2015-Jul-15 04:12N 29°54' E 122°02'0 0.0
2015-Jul-15 01:16N 29°54' E 122°02'0 0.0
2015-Jul-15 00:28N 29°54' E 122°02'2 2.3
2015-Jul-14 23:33N 29°55' E 122°04'7 7.4
2015-Jul-14 22:34N 29°52' E 122°12'1111.2
2015-Jul-14 21:33N 29°45' E 122°22'3 3.4
2015-Jul-14 20:33N 29°44' E 122°26'0 0.0
2015-Jul-13 23:33N 29°45' E 122°26'9 9.2
2015-Jul-13 22:33N 29°47' E 122°36'1111.3
2015-Jul-13 21:33N 29°57' E 122°43'1212.2
2015-Jul-13 20:33N 30°08' E 122°49'1312.6
2015-Jul-13 19:31N 30°20' E 122°45'1111.3
2015-Jul-13 18:33N 30°29' E 122°37'1614.3
2015-Jul-13 17:26N 30°33' E 122°19'1314.5
2015-Jul-13 16:33N 30°36' E 122°05'2 1.6
2015-Jul-13 15:31N 30°38' E 122°03'0 0.0
2015-Jul-13 14:22N 30°38' E 122°03'0 0.0
2015-Jul-13 13:30N 30°38' E 122°03'0 0.0
2015-Jul-13 12:24N 30°38' E 122°03'0 0.0
2015-Jul-13 11:32N 30°38' E 122°03'0 0.0
2015-Jul-13 10:29N 30°38' E 122°03'0 0.0
2015-Jul-13 08:33N 30°38' E 122°03'0 0.0
2015-Jul-13 07:32N 30°38' E 122°03'0 0.0
2015-Jul-13 06:33N 30°38' E 122°03'0 0.0
2015-Jul-13 05:33N 30°38' E 122°03'1 0.6
2015-Jul-13 04:33N 30°37' E 122°03'1313.1
2015-Jul-13 03:33N 30°33' E 122°18'6 5.5
2015-Jul-13 02:33N 30°33' E 122°25'1212.2
2015-Jul-13 01:32N 30°34' E 122°39'1312.9
2015-Jul-13 00:33N 30°34' E 122°54'  
Track history (hours):
 
Tides and Currents Weather Stations Pressure Air Temp Water Temp Dewpoint Dewpoint Depression Visibility Wind Speed Wind Dir Waves Ship Positions

Maersk Damietta

Last reported at 2015-Jul-21 07:31 UTC. Time now 2015-Jul-30 18:05 UTC.
Position N 03°13' E 100°35'.
Warning: this ship's position is 9 days out of date.

Length 295 m; draft 12 m.

Type: Ship. MMSI: 636091506.

Date/timePositionNaut miles runAvg speedWind from/ knotsBaromVisibWave heightAir tempDewpointWater temp
2015-Jul-21 07:31N 03°13' E 100°35'4120.9
2015-Jul-21 05:34N 02°47' E 101°06'4020.2
2015-Jul-21 03:33N 02°26' E 101°41'14317.9
2015-Jul-20 19:33N 01°16' E 103°46'0 0.1
2015-Jul-20 18:28N 01°16' E 103°46'0 0.0
2015-Jul-20 17:33N 01°16' E 103°46'0 0.0
2015-Jul-20 16:28N 01°16' E 103°46'0 0.0
2015-Jul-20 15:28N 01°16' E 103°46'0 0.0
2015-Jul-20 14:25N 01°16' E 103°46'0 0.0
2015-Jul-20 13:28N 01°16' E 103°46'0 0.0
2015-Jul-20 12:24N 01°16' E 103°46'0 0.0
2015-Jul-20 11:24N 01°16' E 103°46'0 0.0
2015-Jul-20 10:33N 01°16' E 103°46'0 0.0
2015-Jul-20 09:30N 01°16' E 103°46'0 0.0
2015-Jul-20 08:33N 01°16' E 103°46'0 0.0
2015-Jul-20 07:29N 01°16' E 103°46'0 0.0
2015-Jul-20 06:29N 01°16' E 103°46'0 0.0
2015-Jul-20 05:32N 01°16' E 103°46'0 0.0
2015-Jul-20 04:27N 01°16' E 103°46'0 0.0
2015-Jul-20 03:03N 01°16' E 103°46'0 0.0
2015-Jul-20 02:33N 01°16' E 103°46'0 0.0
2015-Jul-20 01:33N 01°16' E 103°46'0 0.1
2015-Jul-20 00:33N 01°16' E 103°46'6 5.6
2015-Jul-19 23:33N 01°12' E 103°50'1110.6
2015-Jul-19 22:33N 01°16' E 104°00'  
2015-Jul-16 14:32N 23°42' E 118°26'5719.1
2015-Jul-16 11:31N 24°21' E 119°13'2318.5
2015-Jul-16 10:16N 24°36' E 119°32'1318.4
2015-Jul-16 09:33N 24°45' E 119°43'1918.9
2015-Jul-16 08:33N 24°58' E 119°58'1918.8
2015-Jul-16 07:33N 25°10' E 120°13'2818.7
2015-Jul-16 06:04N 25°30' E 120°35'24419.5
2015-Jul-15 17:32N 29°11' E 122°31'2020.5
2015-Jul-15 16:33N 29°31' E 122°28'1717.2
2015-Jul-15 15:33N 29°45' E 122°18'9 9.3
2015-Jul-15 14:33N 29°52' E 122°11'8 3.5
2015-Jul-15 12:19N 29°54' E 122°02'0 0.0
2015-Jul-15 11:13N 29°54' E 122°02'0 0.0
2015-Jul-15 10:28N 29°54' E 122°02'0 0.0
2015-Jul-15 08:29N 29°54' E 122°02'0 0.0
2015-Jul-15 06:28N 29°54' E 122°02'0 0.0
2015-Jul-15 04:12N 29°54' E 122°02'0 0.0
2015-Jul-15 01:16N 29°54' E 122°02'0 0.0
2015-Jul-15 00:28N 29°54' E 122°02'2 2.3
2015-Jul-14 23:33N 29°55' E 122°04'7 7.4
2015-Jul-14 22:34N 29°52' E 122°12'1111.2
2015-Jul-14 21:33N 29°45' E 122°22'3 3.4
2015-Jul-14 20:33N 29°44' E 122°26'0 0.0
2015-Jul-13 23:33N 29°45' E 122°26'9 9.2
2015-Jul-13 22:33N 29°47' E 122°36'1111.3
2015-Jul-13 21:33N 29°57' E 122°43'1212.2
2015-Jul-13 20:33N 30°08' E 122°49'1312.6
2015-Jul-13 19:31N 30°20' E 122°45'1111.3
2015-Jul-13 18:33N 30°29' E 122°37'1614.3
2015-Jul-13 17:26N 30°33' E 122°19'1314.5
2015-Jul-13 16:33N 30°36' E 122°05'2 1.6
2015-Jul-13 15:31N 30°38' E 122°03'0 0.0
2015-Jul-13 14:22N 30°38' E 122°03'0 0.0
2015-Jul-13 13:30N 30°38' E 122°03'0 0.0
2015-Jul-13 12:24N 30°38' E 122°03'0 0.0
2015-Jul-13 11:32N 30°38' E 122°03'0 0.0
2015-Jul-13 10:29N 30°38' E 122°03'0 0.0
2015-Jul-13 08:33N 30°38' E 122°03'0 0.0
2015-Jul-13 07:32N 30°38' E 122°03'0 0.0
2015-Jul-13 06:33N 30°38' E 122°03'0 0.0
2015-Jul-13 05:33N 30°38' E 122°03'1 0.6
2015-Jul-13 04:33N 30°37' E 122°03'1313.1
2015-Jul-13 03:33N 30°33' E 122°18'6 5.5
2015-Jul-13 02:33N 30°33' E 122°25'1212.2
2015-Jul-13 01:32N 30°34' E 122°39'1312.9
2015-Jul-13 00:33N 30°34' E 122°54'  

Dump ship's entire track history